Terminal Aerodrome Forecast
Issued by NWS

Home | Current Version | Previous Version | Text Only | Print | Product List | Glossary On
Versions: 1 2 3 4 5 6 7 8 9 10 11 12 13 14 15 16 17 18 19 20
000
FTUS44 KCRP 221100
TAFALI
TAF
KALI 221137Z 2212/2312 12005KT 6SM BR BKN020
      TEMPO 2212/2214 5SM BR
     FM221400 16010KT P6SM SCT030 BKN200
     FM221900 14014G18KT P6SM FEW040 SCT250
     FM230200 16008KT P6SM SKC
     FM230600 17004KT 5SM BR SCT005
      TEMPO 2310/2312 2SM BR=

USA.gov is the U.S. government's official web portal to all federal, state and local government web resources and services.